createdAt,value
2022-08-18T00:00:20.103Z,18.2
2022-08-18T00:01:58.867Z,18.1
2022-08-18T00:03:37.607Z,18.2
2022-08-18T00:05:16.359Z,18.3
2022-08-18T00:06:55.108Z,18.2
2022-08-18T00:08:33.862Z,18.2
2022-08-18T00:10:12.608Z,18.2
2022-08-18T00:14:20.657Z,18.2
2022-08-18T00:15:28.970Z,18.1
2022-08-18T00:17:36.242Z,18.1
2022-08-18T00:18:42.633Z,18.2
2022-08-18T00:19:49.040Z,18.2
2022-08-18T00:20:55.451Z,18.1
2022-08-18T00:22:01.818Z,18.1
2022-08-18T00:23:08.214Z,18.1
2022-08-18T00:24:14.614Z,18.1
2022-08-18T00:25:20.994Z,18
2022-08-18T00:26:27.371Z,18
2022-08-18T00:27:33.765Z,17.9
2022-08-18T00:28:40.187Z,17.9
2022-08-18T00:29:46.603Z,17.9
2022-08-18T00:30:53.036Z,17.9
2022-08-18T00:31:59.462Z,17.8
2022-08-18T00:33:05.889Z,17.8
2022-08-18T00:34:12.312Z,17.8
2022-08-18T00:35:18.738Z,17.8
2022-08-18T00:36:25.178Z,17.8
2022-08-18T00:37:31.599Z,17.8
2022-08-18T00:38:38.023Z,17.8
2022-08-18T00:39:44.445Z,17.8
2022-08-18T00:40:50.869Z,17.8
2022-08-18T00:41:57.300Z,17.9
2022-08-18T00:43:03.725Z,17.9
2022-08-18T00:44:10.157Z,18
2022-08-18T00:45:16.707Z,18
2022-08-18T00:46:23.242Z,18
2022-08-18T00:47:29.754Z,18.1
2022-08-18T00:48:36.270Z,18.1
2022-08-18T00:49:42.783Z,18.1
2022-08-18T00:50:49.287Z,18.1
2022-08-18T00:51:55.799Z,18.1
2022-08-18T00:53:02.317Z,18.1
2022-08-18T00:54:08.832Z,18.1
2022-08-18T00:55:15.343Z,18.1
2022-08-18T00:56:21.859Z,18.1
2022-08-18T00:57:28.362Z,18.2
2022-08-18T00:58:34.878Z,18.1
2022-08-18T00:59:42.825Z,18
2022-08-18T01:00:49.569Z,18
2022-08-18T01:01:56.312Z,18
2022-08-18T01:03:03.070Z,18.1
2022-08-18T01:04:09.817Z,18.1
2022-08-18T01:05:16.570Z,18.1
2022-08-18T01:06:23.322Z,18.1
2022-08-18T01:07:30.093Z,18.2
2022-08-18T01:08:36.823Z,18.3
2022-08-18T01:09:43.580Z,18.4
2022-08-18T01:10:50.327Z,18.5
2022-08-18T01:11:57.080Z,18.5
2022-08-18T01:13:03.843Z,18.5
2022-08-18T01:16:21.963Z,18.6
2022-08-18T01:17:29.202Z,18.7
2022-08-18T01:18:36.436Z,18.7
2022-08-18T01:20:15.170Z,18.7
2022-08-18T01:21:53.896Z,18.7
2022-08-18T01:23:32.621Z,18.7
2022-08-18T01:25:11.356Z,18.7
2022-08-18T01:26:50.084Z,18.7
2022-08-18T01:28:28.801Z,18.6
2022-08-18T01:30:07.529Z,18.7
2022-08-18T01:31:46.266Z,18.7
2022-08-18T01:33:24.991Z,18.7
2022-08-18T01:34:32.228Z,18.7
2022-08-18T01:37:33.002Z,18.8
2022-08-18T01:40:58.814Z,18.8
2022-08-18T01:41:55.229Z,18.8
2022-08-18T01:43:01.720Z,18.9
2022-08-18T01:44:08.243Z,18.9
2022-08-18T01:45:14.774Z,18.9
2022-08-18T01:46:21.290Z,18.8
2022-08-18T01:47:27.813Z,18.9
2022-08-18T01:48:34.346Z,18.9
2022-08-18T01:49:40.860Z,18.9
2022-08-18T01:50:47.387Z,18.8
2022-08-18T01:51:53.910Z,18.8
2022-08-18T01:53:00.427Z,18.8
2022-08-18T01:54:06.955Z,18.8
2022-08-18T01:55:13.473Z,18.7
2022-08-18T01:56:19.991Z,18.7
2022-08-18T01:57:26.510Z,18.7
2022-08-18T01:58:33.022Z,18.7
2022-08-18T01:59:39.543Z,18.7
2022-08-18T02:00:46.060Z,18.7
2022-08-18T02:01:52.576Z,18.7
2022-08-18T02:02:59.081Z,18.7
2022-08-18T02:04:05.614Z,18.7
2022-08-18T02:05:12.105Z,18.7
2022-08-18T02:06:18.625Z,18.7
2022-08-18T02:07:25.149Z,18.7
2022-08-18T02:08:31.889Z,18.7
2022-08-18T02:09:38.638Z,18.7
2022-08-18T02:10:45.396Z,18.7
2022-08-18T02:11:52.165Z,18.7
2022-08-18T02:12:58.916Z,18.7
2022-08-18T02:14:05.681Z,18.7
2022-08-18T02:15:12.433Z,18.7
2022-08-18T02:16:19.177Z,18.7
2022-08-18T02:17:25.935Z,18.7
2022-08-18T02:18:32.689Z,18.7
2022-08-18T02:19:39.439Z,18.7
2022-08-18T02:20:46.194Z,18.7
2022-08-18T02:21:52.959Z,18.7
2022-08-18T02:23:00.206Z,18.8
2022-08-18T02:24:38.930Z,18.8
2022-08-18T02:26:17.649Z,18.8
2022-08-18T02:27:56.376Z,18.8
2022-08-18T02:29:35.098Z,18.8
2022-08-18T02:31:13.820Z,18.8
2022-08-18T02:32:52.545Z,18.8
2022-08-18T02:34:31.264Z,18.7
2022-08-18T02:36:09.988Z,18.7
2022-08-18T02:37:48.719Z,18.6
2022-08-18T02:39:27.461Z,18.6
2022-08-18T02:41:06.206Z,18.5
2022-08-18T02:42:44.957Z,18.5
2022-08-18T02:46:52.991Z,18.5
2022-08-18T02:47:59.445Z,18.6
2022-08-18T02:50:08.577Z,18.6
2022-08-18T02:51:14.973Z,18.6
2022-08-18T02:52:21.376Z,18.6
2022-08-18T02:53:27.772Z,18.7
2022-08-18T02:54:34.168Z,18.7
2022-08-18T02:55:40.592Z,18.7
2022-08-18T02:56:46.962Z,18.7
2022-08-18T02:57:53.359Z,18.7
2022-08-18T02:58:59.767Z,18.7
2022-08-18T03:00:06.146Z,18.8
2022-08-18T03:01:12.538Z,18.8
2022-08-18T03:02:18.932Z,18.8
2022-08-18T03:03:25.342Z,18.8
2022-08-18T03:04:31.729Z,18.8
2022-08-18T03:05:38.134Z,18.8
2022-08-18T03:06:44.544Z,18.9
2022-08-18T03:07:50.933Z,18.9
2022-08-18T03:08:57.332Z,18.9
2022-08-18T03:10:03.734Z,18.9
2022-08-18T03:11:10.139Z,19
2022-08-18T03:12:16.547Z,18.9
2022-08-18T03:13:22.925Z,19
2022-08-18T03:14:29.327Z,19
2022-08-18T03:15:35.729Z,19
2022-08-18T03:16:42.252Z,19
2022-08-18T03:17:48.781Z,19
2022-08-18T03:18:55.282Z,19
2022-08-18T03:20:01.808Z,19
2022-08-18T03:21:08.317Z,19
2022-08-18T03:22:14.833Z,19
2022-08-18T03:23:21.358Z,19
2022-08-18T03:24:27.861Z,19
2022-08-18T03:25:34.366Z,19
2022-08-18T03:26:40.872Z,19.1
2022-08-18T03:27:47.386Z,19.1
2022-08-18T03:28:53.893Z,19
2022-08-18T03:30:00.413Z,19
2022-08-18T03:31:33.723Z,19
2022-08-18T03:32:40.488Z,19
2022-08-18T03:33:47.248Z,19
2022-08-18T03:34:54.000Z,19
2022-08-18T03:36:00.757Z,19
2022-08-18T03:37:07.516Z,18.9
2022-08-18T03:38:14.285Z,18.9
2022-08-18T03:39:21.031Z,18.9
2022-08-18T03:40:27.793Z,18.9
2022-08-18T03:41:34.566Z,18.9
2022-08-18T03:42:41.314Z,18.8
2022-08-18T03:43:48.079Z,18.8
2022-08-18T03:44:54.831Z,18.8
2022-08-18T03:48:12.983Z,18.8
2022-08-18T03:49:51.707Z,18.8
2022-08-18T03:51:30.429Z,18.8
2022-08-18T03:52:37.677Z,18.8
2022-08-18T03:53:44.923Z,18.8
2022-08-18T03:55:23.641Z,18.9
2022-08-18T03:57:02.384Z,18.9
2022-08-18T03:58:41.116Z,18.9
2022-08-18T04:00:19.852Z,18.9
2022-08-18T04:01:58.593Z,18.9
2022-08-18T04:03:37.321Z,18.9
2022-08-18T04:05:16.046Z,18.9
2022-08-18T04:06:54.785Z,18.9
2022-08-18T04:09:05.660Z,18.9
2022-08-18T04:11:00.933Z,18.9
2022-08-18T04:12:07.351Z,18.9
2022-08-18T04:13:13.765Z,18.8
2022-08-18T04:14:20.188Z,18.8
2022-08-18T04:15:26.611Z,18.8
2022-08-18T04:16:33.021Z,18.8
2022-08-18T04:17:39.451Z,18.8
2022-08-18T04:18:45.810Z,18.8
2022-08-18T04:19:52.186Z,18.8
2022-08-18T04:20:58.554Z,18.8
2022-08-18T04:22:04.963Z,18.9
2022-08-18T04:23:11.389Z,18.9
2022-08-18T04:24:17.823Z,18.9
2022-08-18T04:25:24.271Z,18.9
2022-08-18T04:26:30.695Z,18.9
2022-08-18T04:27:37.132Z,18.9
2022-08-18T04:28:43.559Z,18.9
2022-08-18T04:29:49.997Z,18.9
2022-08-18T04:30:56.439Z,18.9
2022-08-18T04:32:02.858Z,18.9
2022-08-18T04:33:09.293Z,18.8
2022-08-18T04:34:15.733Z,18.8
2022-08-18T04:35:22.164Z,18.8
2022-08-18T04:36:28.601Z,18.8
2022-08-18T04:37:35.026Z,18.8
2022-08-18T04:38:41.587Z,18.9
2022-08-18T04:39:48.122Z,18.9
2022-08-18T04:40:54.669Z,18.9
2022-08-18T04:42:01.218Z,18.9
2022-08-18T04:43:07.772Z,18.9
2022-08-18T04:44:14.334Z,18.9
2022-08-18T04:45:20.892Z,18.9
2022-08-18T04:46:27.451Z,18.9
2022-08-18T04:47:33.994Z,19
2022-08-18T04:48:40.541Z,19
2022-08-18T04:49:47.099Z,19
2022-08-18T04:50:53.645Z,19
2022-08-18T04:52:00.209Z,19
2022-08-18T04:54:14.814Z,19
2022-08-18T04:55:21.604Z,19.1
2022-08-18T04:56:28.393Z,19.1
2022-08-18T04:57:35.202Z,19.1
2022-08-18T04:58:41.987Z,19.1
2022-08-18T04:59:48.785Z,19.1
2022-08-18T05:00:55.557Z,19.1
2022-08-18T05:02:02.335Z,19.1
2022-08-18T05:03:09.122Z,19.1
2022-08-18T05:04:15.917Z,19.1
2022-08-18T05:05:22.699Z,19.1
2022-08-18T05:06:29.489Z,19.1
2022-08-18T05:09:47.685Z,19.2
2022-08-18T05:10:54.963Z,19.2
2022-08-18T05:12:02.224Z,19.2
2022-08-18T05:13:40.970Z,19.2
2022-08-18T05:15:19.706Z,19.2
2022-08-18T05:16:58.447Z,19.2
2022-08-18T05:18:37.180Z,19.2
2022-08-18T05:20:15.924Z,19.2
2022-08-18T05:21:54.665Z,19.2
2022-08-18T05:23:33.381Z,19.2
2022-08-18T05:25:12.109Z,19.2
2022-08-18T05:26:50.834Z,19.2
2022-08-18T05:27:58.107Z,19.2
2022-08-18T05:30:58.840Z,19.2
2022-08-18T05:34:14.555Z,19.3
2022-08-18T05:35:21.119Z,19.4
2022-08-18T05:36:27.669Z,19.4
2022-08-18T05:37:34.231Z,19.4
2022-08-18T05:38:40.802Z,19.5
2022-08-18T05:39:47.349Z,19.5
2022-08-18T05:40:53.873Z,19.5
2022-08-18T05:42:00.413Z,19.5
2022-08-18T05:43:06.956Z,19.5
2022-08-18T05:44:13.509Z,19.5
2022-08-18T05:45:20.048Z,19.5
2022-08-18T05:46:26.591Z,19.5
2022-08-18T05:47:33.138Z,19.5
2022-08-18T05:48:39.679Z,19.5
2022-08-18T05:49:46.225Z,19.5
2022-08-18T05:50:52.762Z,19.5
2022-08-18T05:51:59.312Z,19.5
2022-08-18T05:53:05.855Z,19.5
2022-08-18T05:54:12.393Z,19.5
2022-08-18T05:55:18.889Z,19.6
2022-08-18T05:56:25.433Z,19.6
2022-08-18T05:57:31.982Z,19.6
2022-08-18T05:58:38.534Z,19.6
2022-08-18T05:59:45.093Z,19.6
2022-08-18T06:00:51.657Z,19.6
2022-08-18T06:01:58.439Z,19.6
2022-08-18T06:03:05.233Z,19.6
2022-08-18T06:04:12.020Z,19.6
2022-08-18T06:05:18.807Z,19.6
2022-08-18T06:06:25.567Z,19.6
2022-08-18T06:07:32.375Z,19.6
2022-08-18T06:08:39.179Z,19.7
2022-08-18T06:09:45.992Z,19.7
2022-08-18T06:10:52.779Z,19.7
2022-08-18T06:11:59.577Z,19.6
2022-08-18T06:13:06.384Z,19.6
2022-08-18T06:14:13.173Z,19.6
2022-08-18T06:15:19.978Z,19.6
2022-08-18T06:16:27.289Z,19.6
2022-08-18T06:18:06.015Z,19.6
2022-08-18T06:19:44.743Z,19.7
2022-08-18T06:21:23.459Z,19.7
2022-08-18T06:23:02.175Z,19.7
2022-08-18T06:24:40.898Z,19.7
2022-08-18T06:26:19.611Z,19.7
2022-08-18T06:27:58.319Z,19.7
2022-08-18T06:29:37.034Z,19.7
2022-08-18T06:31:15.757Z,19.7
2022-08-18T06:32:54.463Z,19.7
2022-08-18T06:34:33.196Z,19.7
2022-08-18T06:36:11.918Z,19.7
2022-08-18T06:40:19.909Z,19.7
2022-08-18T06:41:26.485Z,19.8
2022-08-18T06:43:35.615Z,19.8
2022-08-18T06:44:42.160Z,19.9
2022-08-18T06:45:48.718Z,19.9
2022-08-18T06:46:55.263Z,20
2022-08-18T06:48:01.820Z,20
2022-08-18T06:49:08.382Z,20.1
2022-08-18T06:50:14.947Z,20.1
2022-08-18T06:51:21.518Z,20.1
2022-08-18T06:52:28.070Z,20.2
2022-08-18T06:53:34.626Z,20.1
2022-08-18T06:54:41.199Z,20.1
2022-08-18T06:55:47.759Z,20.1
2022-08-18T06:56:54.310Z,20.1
2022-08-18T06:58:00.879Z,20.2
2022-08-18T06:59:07.434Z,20.3
2022-08-18T07:00:13.996Z,20.3
2022-08-18T07:01:20.561Z,20.3
2022-08-18T07:02:27.118Z,20.3
2022-08-18T07:03:33.673Z,20.3
2022-08-18T07:04:40.232Z,20.4
2022-08-18T07:05:46.792Z,20.4
2022-08-18T07:06:53.348Z,20.4
2022-08-18T07:07:59.906Z,20.4
2022-08-18T07:09:06.463Z,20.3
2022-08-18T07:10:13.247Z,20.3
2022-08-18T07:11:20.053Z,20.4
2022-08-18T07:12:26.853Z,20.4
2022-08-18T07:13:33.643Z,20.4
2022-08-18T07:14:40.448Z,20.4
2022-08-18T07:15:47.243Z,20.4
2022-08-18T07:16:54.041Z,20.5
2022-08-18T07:18:00.840Z,20.5
2022-08-18T07:19:07.639Z,20.5
2022-08-18T07:20:14.437Z,20.5
2022-08-18T07:21:21.246Z,20.4
2022-08-18T07:22:28.028Z,20.5
2022-08-18T07:23:34.816Z,20.5
2022-08-18T07:26:14.202Z,20.5
2022-08-18T07:27:52.923Z,20.5
2022-08-18T07:29:31.651Z,20.5
2022-08-18T07:31:10.380Z,20.6
2022-08-18T07:32:17.664Z,20.6
2022-08-18T07:33:24.954Z,20.6
2022-08-18T07:35:03.683Z,20.6
2022-08-18T07:36:42.414Z,20.6
2022-08-18T07:38:21.150Z,20.6
2022-08-18T07:39:59.877Z,20.7
2022-08-18T07:41:38.598Z,20.8
2022-08-18T07:43:17.310Z,20.9
2022-08-18T07:44:56.055Z,21
2022-08-18T07:48:45.689Z,21
2022-08-18T07:49:52.153Z,21.3
2022-08-18T07:50:58.599Z,21.5
2022-08-18T07:52:05.039Z,21.6
2022-08-18T07:53:11.480Z,21.7
2022-08-18T07:54:17.909Z,21.7
2022-08-18T07:55:24.354Z,21.9
2022-08-18T07:56:30.781Z,21.9
2022-08-18T07:57:37.231Z,22
2022-08-18T07:58:43.646Z,22
2022-08-18T07:59:50.086Z,22
2022-08-18T08:00:56.513Z,22
2022-08-18T08:02:02.948Z,21.9
2022-08-18T08:03:09.393Z,21.7
2022-08-18T08:04:15.824Z,21.6
2022-08-18T08:05:22.254Z,21.6
2022-08-18T08:06:28.686Z,21.5
2022-08-18T08:07:35.136Z,21.5
2022-08-18T08:08:41.569Z,21.5
2022-08-18T08:09:48.005Z,21.4
2022-08-18T08:10:54.455Z,21.4
2022-08-18T08:12:00.898Z,21.4
2022-08-18T08:13:07.334Z,21.3
2022-08-18T08:14:13.780Z,21.3
2022-08-18T08:15:20.208Z,21.4
2022-08-18T08:16:26.681Z,21.4
2022-08-18T08:17:33.226Z,21.4
2022-08-18T08:18:39.782Z,21.4
2022-08-18T08:19:46.341Z,21.4
2022-08-18T08:20:52.903Z,21.5
2022-08-18T08:21:59.474Z,21.6
2022-08-18T08:23:06.024Z,21.7
2022-08-18T08:24:12.589Z,21.8
2022-08-18T08:25:19.163Z,21.9
2022-08-18T08:26:25.711Z,21.9
2022-08-18T08:27:32.279Z,22
2022-08-18T08:28:38.848Z,22.2
2022-08-18T08:29:45.397Z,22.2
2022-08-18T08:30:51.953Z,22.4
2022-08-18T08:32:41.250Z,22.4
2022-08-18T08:33:48.050Z,22.5
2022-08-18T08:34:54.859Z,22.6
2022-08-18T08:36:01.660Z,22.7
2022-08-18T08:37:08.455Z,22.6
2022-08-18T08:38:15.259Z,22.6
2022-08-18T08:39:22.061Z,22.6
2022-08-18T08:40:28.858Z,22.7
2022-08-18T08:41:35.658Z,22.8
2022-08-18T08:42:42.460Z,22.8
2022-08-18T08:43:49.263Z,22.8
2022-08-18T08:44:56.068Z,22.9
2022-08-18T08:46:02.858Z,23
2022-08-18T08:49:21.030Z,23.2
2022-08-18T08:50:56.487Z,23.2
2022-08-18T08:52:03.774Z,23.3
2022-08-18T08:53:42.498Z,23.4
2022-08-18T08:55:21.232Z,23.3
2022-08-18T08:56:59.952Z,23.3
2022-08-18T08:58:38.683Z,23.2
2022-08-18T09:00:17.410Z,23.1
2022-08-18T09:01:56.143Z,23.1
2022-08-18T09:03:34.865Z,23.2
2022-08-18T09:05:13.598Z,23.2
2022-08-18T09:06:52.323Z,23.1
2022-08-18T09:07:59.604Z,22.9
2022-08-18T09:11:00.302Z,22.8
2022-08-18T09:14:16.289Z,22.5
2022-08-18T09:15:23.052Z,22.4
2022-08-18T09:16:29.845Z,22.4
2022-08-18T09:17:36.645Z,22.5
2022-08-18T09:18:43.444Z,22.6
2022-08-18T09:19:50.258Z,22.7
2022-08-18T09:20:57.064Z,22.8
2022-08-18T09:22:03.819Z,22.9
2022-08-18T09:23:10.570Z,23
2022-08-18T09:24:17.315Z,23.1
2022-08-18T09:25:24.076Z,23.3
2022-08-18T09:26:30.823Z,23.6
2022-08-18T09:27:37.574Z,24.1
2022-08-18T09:28:44.331Z,24.6
2022-08-18T09:29:51.083Z,24.9
2022-08-18T09:30:57.825Z,25.1
2022-08-18T09:32:04.578Z,25.3
2022-08-18T09:33:11.328Z,25.2
2022-08-18T09:34:18.081Z,25.1
2022-08-18T09:35:24.839Z,25.2
2022-08-18T09:36:31.592Z,25.1
2022-08-18T09:37:38.361Z,25.1
2022-08-18T09:38:45.163Z,24.8
2022-08-18T09:39:51.972Z,24.6
2022-08-18T09:40:58.773Z,24.8
2022-08-18T09:42:32.120Z,24.8
2022-08-18T09:43:39.398Z,24.8
2022-08-18T09:45:18.098Z,24.6
2022-08-18T09:46:56.802Z,24.5
2022-08-18T09:48:35.511Z,24.6
2022-08-18T09:50:14.223Z,24.8
2022-08-18T09:51:52.913Z,25.2
2022-08-18T09:53:31.615Z,25.6
2022-08-18T09:55:10.337Z,25.7
2022-08-18T09:56:49.053Z,25.5
2022-08-18T09:58:27.772Z,25
2022-08-18T09:59:35.066Z,24.6
2022-08-18T10:00:42.355Z,24.5
2022-08-18T10:04:50.355Z,24.3
2022-08-18T10:08:06.087Z,23.8
2022-08-18T10:09:12.644Z,23.7
2022-08-18T10:10:19.200Z,23.7
2022-08-18T10:11:25.760Z,23.7
2022-08-18T10:12:32.353Z,23.7
2022-08-18T10:13:38.881Z,23.6
2022-08-18T10:14:45.480Z,23.7
2022-08-18T10:15:52.019Z,23.8
2022-08-18T10:16:58.591Z,23.9
2022-08-18T10:18:05.158Z,24
2022-08-18T10:19:11.736Z,24.1
2022-08-18T10:20:18.266Z,24.2
2022-08-18T10:21:24.852Z,24.3
2022-08-18T10:22:31.383Z,24.4
2022-08-18T10:23:37.969Z,24.3
2022-08-18T10:24:44.514Z,24.1
2022-08-18T10:25:51.077Z,24.1
2022-08-18T10:26:57.637Z,24
2022-08-18T10:28:04.193Z,24.1
2022-08-18T10:29:10.789Z,24.1
2022-08-18T10:30:17.314Z,24.1
2022-08-18T10:31:23.878Z,24.1
2022-08-18T10:32:30.455Z,24.1
2022-08-18T10:33:37.013Z,24.2
2022-08-18T10:34:43.563Z,24.2
2022-08-18T10:35:50.380Z,24.4
2022-08-18T10:36:57.181Z,24.4
2022-08-18T10:38:03.990Z,24.4
2022-08-18T10:39:10.790Z,24.4
2022-08-18T10:40:17.569Z,24.4
2022-08-18T10:41:24.386Z,24.4
2022-08-18T10:42:31.181Z,24.5
2022-08-18T10:43:38.006Z,24.6
2022-08-18T10:44:44.818Z,24.5
2022-08-18T10:45:51.625Z,24.5
2022-08-18T10:46:58.429Z,24.5
2022-08-18T10:48:05.202Z,24.3
2022-08-18T10:49:12.018Z,24.5
2022-08-18T10:52:30.172Z,24.6
2022-08-18T10:54:08.880Z,24.7
2022-08-18T10:55:47.592Z,24.8
2022-08-18T10:56:54.851Z,24.9
2022-08-18T10:58:02.089Z,24.9
2022-08-18T10:59:40.779Z,24.9
2022-08-18T11:01:19.486Z,25.2
2022-08-18T11:02:58.210Z,25.5
2022-08-18T11:04:36.890Z,25.7
2022-08-18T11:06:15.621Z,25.7
2022-08-18T11:07:54.341Z,25.7
2022-08-18T11:09:33.049Z,25.8
2022-08-18T11:11:11.771Z,26.2
2022-08-18T11:13:22.882Z,26.3
2022-08-18T11:15:17.943Z,26.2
2022-08-18T11:16:24.345Z,26.3
2022-08-18T11:17:30.801Z,26.4
2022-08-18T11:18:37.155Z,26.3
2022-08-18T11:19:43.559Z,26.3
2022-08-18T11:20:49.940Z,26.4
2022-08-18T11:21:56.315Z,26.4
2022-08-18T11:23:02.686Z,26.4
2022-08-18T11:24:09.092Z,26.4
2022-08-18T11:25:15.489Z,26.5
2022-08-18T11:26:21.872Z,26.6
2022-08-18T11:27:28.251Z,26.7
2022-08-18T11:28:34.600Z,26.7
2022-08-18T11:29:41.004Z,26.6
2022-08-18T11:30:47.385Z,26.4
2022-08-18T11:31:53.770Z,26.1
2022-08-18T11:33:00.186Z,26
2022-08-18T11:34:06.533Z,26
2022-08-18T11:35:12.909Z,26
2022-08-18T11:36:19.292Z,26
2022-08-18T11:37:25.697Z,26
2022-08-18T11:38:32.094Z,26
2022-08-18T11:39:38.477Z,26
2022-08-18T11:40:44.886Z,26
2022-08-18T11:41:51.305Z,26
2022-08-18T11:42:57.774Z,26
2022-08-18T11:44:04.302Z,25.8
2022-08-18T11:45:10.862Z,25.7
2022-08-18T11:46:17.462Z,25.6
2022-08-18T11:47:23.916Z,25.5
2022-08-18T11:48:30.469Z,25.5
2022-08-18T11:49:36.973Z,25.5
2022-08-18T11:50:43.471Z,25.6
2022-08-18T11:51:49.953Z,25.7
2022-08-18T11:52:56.468Z,25.6
2022-08-18T11:54:02.972Z,25.7
2022-08-18T11:55:09.474Z,25.8
2022-08-18T11:56:16.043Z,26
2022-08-18T11:57:23.959Z,26.2
2022-08-18T11:58:30.703Z,26.4
2022-08-18T11:59:37.447Z,26.7
2022-08-18T12:00:44.240Z,26.9
2022-08-18T12:01:50.992Z,27.3
2022-08-18T12:02:57.753Z,27.7
2022-08-18T12:04:04.500Z,28.1
2022-08-18T12:05:11.338Z,28.1
2022-08-18T12:06:18.048Z,28.2
2022-08-18T12:07:24.817Z,28.1
2022-08-18T12:08:31.583Z,28.2
2022-08-18T12:09:38.338Z,28.2
2022-08-18T12:10:45.076Z,27.6
2022-08-18T12:14:03.197Z,27.5
2022-08-18T12:15:10.462Z,27.4
2022-08-18T12:16:17.704Z,27.6
2022-08-18T12:17:56.495Z,27.8
2022-08-18T12:19:35.235Z,27.6
2022-08-18T12:21:14.007Z,27.6
2022-08-18T12:22:52.743Z,28
2022-08-18T12:24:31.438Z,28
2022-08-18T12:26:10.205Z,28.3
2022-08-18T12:27:48.963Z,28.2
2022-08-18T12:29:27.703Z,29
2022-08-18T12:31:06.415Z,29.5
2022-08-18T12:32:13.654Z,30.5
2022-08-18T12:35:14.485Z,30.6
2022-08-18T12:38:30.154Z,32.5
2022-08-18T12:39:36.657Z,32.8
2022-08-18T12:40:43.221Z,32.3
2022-08-18T12:41:49.731Z,32.1
2022-08-18T12:42:56.245Z,31.8
2022-08-18T12:44:02.730Z,31.8
2022-08-18T12:45:09.246Z,32.1
2022-08-18T12:46:15.797Z,32.3
2022-08-18T12:47:22.343Z,32.4
2022-08-18T12:48:28.849Z,33.4
2022-08-18T12:49:35.359Z,33.8
2022-08-18T12:50:41.861Z,33.8
2022-08-18T12:51:48.393Z,33.4
2022-08-18T12:52:54.898Z,33.3
2022-08-18T12:54:01.422Z,33.2
2022-08-18T12:55:07.939Z,33
2022-08-18T12:56:14.454Z,32
2022-08-18T12:57:20.990Z,31.3
2022-08-18T12:58:27.509Z,31.2
2022-08-18T12:59:34.034Z,31.1
2022-08-18T13:00:40.541Z,31
2022-08-18T13:01:47.054Z,30.7
2022-08-18T13:02:53.563Z,30.2
2022-08-18T13:04:00.078Z,30.1
2022-08-18T13:05:06.621Z,29.9
2022-08-18T13:06:13.363Z,29.5
2022-08-18T13:07:20.141Z,29.4
2022-08-18T13:08:26.862Z,29.4
2022-08-18T13:09:33.621Z,29.2
2022-08-18T13:10:40.380Z,29
2022-08-18T13:11:47.191Z,28.8
2022-08-18T13:12:53.901Z,28.8
2022-08-18T13:14:00.629Z,28.8
2022-08-18T13:15:07.374Z,28.6
2022-08-18T13:16:14.148Z,28.5
2022-08-18T13:17:20.889Z,28.3
2022-08-18T13:18:27.649Z,28.1
2022-08-18T13:19:34.393Z,28.1
2022-08-18T13:20:41.664Z,27.8
2022-08-18T13:22:20.353Z,27.5
2022-08-18T13:23:59.062Z,27.3
2022-08-18T13:25:37.831Z,27.1
2022-08-18T13:27:16.499Z,27.1
2022-08-18T13:28:55.182Z,27
2022-08-18T13:30:33.963Z,26.9
2022-08-18T13:32:12.630Z,26.9
2022-08-18T13:33:51.333Z,27
2022-08-18T13:35:30.062Z,27.2
2022-08-18T13:37:08.751Z,27.3
2022-08-18T13:38:47.495Z,27.5
2022-08-18T13:40:26.180Z,27.6
2022-08-18T13:44:34.264Z,27.5
2022-08-18T13:45:42.424Z,27.6
2022-08-18T13:47:51.629Z,27.6
2022-08-18T13:51:07.281Z,27.1
2022-08-18T13:52:13.661Z,27.4
2022-08-18T13:53:20.066Z,27.6
2022-08-18T13:54:26.449Z,27.9
2022-08-18T13:55:32.845Z,28.2
2022-08-18T13:56:39.230Z,28.5
2022-08-18T13:57:45.620Z,28.6
2022-08-18T13:58:52.030Z,28.7
2022-08-18T13:59:58.460Z,28.8
2022-08-18T14:01:04.858Z,28.6
2022-08-18T14:02:11.239Z,28.6
2022-08-18T14:03:17.603Z,28.7
2022-08-18T14:04:23.987Z,28.9
2022-08-18T14:05:30.385Z,29.1
2022-08-18T14:06:36.813Z,29.1
2022-08-18T14:07:43.185Z,28.8
2022-08-18T14:08:49.579Z,28.8
2022-08-18T14:09:56.055Z,28.7
2022-08-18T14:11:02.362Z,29
2022-08-18T14:12:08.778Z,29.1
2022-08-18T14:13:15.165Z,29.2
2022-08-18T14:14:21.594Z,29.3
2022-08-18T14:15:27.969Z,29.3
2022-08-18T14:16:34.397Z,29.4
2022-08-18T14:17:40.739Z,29.5
2022-08-18T14:18:47.295Z,29.7
2022-08-18T14:19:53.831Z,29.9
2022-08-18T14:21:00.341Z,29.8
2022-08-18T14:22:06.870Z,30.1
2022-08-18T14:23:13.375Z,30.1
2022-08-18T14:24:19.891Z,29.9
2022-08-18T14:25:26.393Z,30
2022-08-18T14:26:32.932Z,29.8
2022-08-18T14:27:39.435Z,29.8
2022-08-18T14:28:45.943Z,29.9
2022-08-18T14:29:52.494Z,29.9
2022-08-18T14:30:58.982Z,29.8
2022-08-18T14:32:05.508Z,29.9
2022-08-18T14:33:54.836Z,30.1
2022-08-18T14:35:01.607Z,29.7
2022-08-18T14:36:08.390Z,29.3
2022-08-18T14:37:15.125Z,29.1
2022-08-18T14:38:21.894Z,29.1
2022-08-18T14:39:28.658Z,29
2022-08-18T14:40:35.413Z,29
2022-08-18T14:41:42.203Z,29
2022-08-18T14:42:48.942Z,28.9
2022-08-18T14:43:55.701Z,28.8
2022-08-18T14:45:02.479Z,28.5
2022-08-18T14:46:09.196Z,28.7
2022-08-18T14:47:15.956Z,28.6
2022-08-18T14:50:34.087Z,28.3
2022-08-18T14:52:12.825Z,27.9
2022-08-18T14:53:20.123Z,28.3
2022-08-18T14:54:27.358Z,28.7
2022-08-18T14:56:06.091Z,28.7
2022-08-18T14:57:44.834Z,28.8
2022-08-18T14:59:23.580Z,28.8
2022-08-18T15:01:02.312Z,29
2022-08-18T15:02:41.096Z,28.6
2022-08-18T15:04:19.774Z,28.1
2022-08-18T15:05:58.478Z,27.9
2022-08-18T15:07:37.223Z,28
2022-08-18T15:09:15.938Z,28
2022-08-18T15:10:55.687Z,27.8
2022-08-18T15:14:13.069Z,27.7
2022-08-18T15:17:30.496Z,28.1
2022-08-18T15:20:47.957Z,28.5
2022-08-18T15:24:03.540Z,30.5
2022-08-18T15:25:09.918Z,32
2022-08-18T15:26:16.341Z,32.8
2022-08-18T15:27:22.734Z,33
2022-08-18T15:28:29.162Z,33.3
2022-08-18T15:29:35.525Z,33.6
2022-08-18T15:30:41.959Z,34.1
2022-08-18T15:31:48.333Z,33.4
2022-08-18T15:32:54.754Z,33.2
2022-08-18T15:34:01.150Z,32.8
2022-08-18T15:35:07.510Z,32.1
2022-08-18T15:36:13.923Z,31.8
2022-08-18T15:37:20.337Z,31.4
2022-08-18T15:38:26.716Z,30.5
2022-08-18T15:39:33.106Z,30.1
2022-08-18T15:40:39.537Z,29.6
2022-08-18T15:41:45.929Z,29.9
2022-08-18T15:42:52.282Z,30.7
2022-08-18T15:43:58.680Z,31.7
2022-08-18T15:45:05.061Z,32.4
2022-08-18T15:46:11.505Z,32.7
2022-08-18T15:47:18.020Z,33.3
2022-08-18T15:48:24.303Z,33.9
2022-08-18T15:49:30.689Z,34.2
2022-08-18T15:50:37.109Z,34.4
2022-08-18T15:51:43.606Z,33.4
2022-08-18T15:52:50.139Z,32.6
2022-08-18T15:53:56.671Z,32.1
2022-08-18T15:55:03.174Z,32.8
2022-08-18T15:56:09.675Z,33
2022-08-18T15:57:16.202Z,33.3
2022-08-18T15:58:22.731Z,33.7
2022-08-18T15:59:29.240Z,33.3
2022-08-18T16:00:35.812Z,32.7
2022-08-18T16:01:42.305Z,32.5
2022-08-18T16:02:48.807Z,32.6
2022-08-18T16:03:55.330Z,32.4
2022-08-18T16:05:01.885Z,32.5
2022-08-18T16:06:51.210Z,32.2
2022-08-18T16:07:57.977Z,32.4
2022-08-18T16:09:04.727Z,32.9
2022-08-18T16:10:11.489Z,33.4
2022-08-18T16:11:18.259Z,33.7
2022-08-18T16:12:25.017Z,33.6
2022-08-18T16:13:31.765Z,33.6
2022-08-18T16:14:38.518Z,33.5
2022-08-18T16:15:45.296Z,33
2022-08-18T16:16:52.002Z,32.1
2022-08-18T16:17:58.776Z,31.6
2022-08-18T16:19:05.536Z,31.2
2022-08-18T16:20:12.291Z,30.6
2022-08-18T16:23:30.517Z,30.3
2022-08-18T16:25:09.249Z,28.4
2022-08-18T16:26:16.520Z,28.7
2022-08-18T16:27:23.769Z,29.1
2022-08-18T16:29:02.460Z,29.4
2022-08-18T16:30:41.176Z,29.5
2022-08-18T16:32:19.878Z,28.5
2022-08-18T16:33:58.583Z,27.9
2022-08-18T16:35:37.318Z,27.6
2022-08-18T16:37:16.027Z,27.2
2022-08-18T16:38:54.730Z,27.2
2022-08-18T16:40:33.461Z,27
2022-08-18T16:42:12.148Z,26.8
2022-08-18T16:43:51.855Z,26.7
2022-08-18T16:47:09.262Z,26.6
2022-08-18T16:50:26.686Z,26.1
2022-08-18T16:53:44.092Z,25.6
2022-08-18T16:56:59.803Z,25.7
2022-08-18T16:58:06.375Z,25.7
2022-08-18T16:59:12.947Z,25.8
2022-08-18T17:00:19.498Z,25.8
2022-08-18T17:01:26.044Z,25.8
2022-08-18T17:02:32.574Z,25.8
2022-08-18T17:03:39.139Z,25.8
2022-08-18T17:04:45.707Z,25.8
2022-08-18T17:05:52.274Z,25.7
2022-08-18T17:06:58.829Z,25.7
2022-08-18T17:08:05.394Z,25.5
2022-08-18T17:09:11.974Z,25.5
2022-08-18T17:10:18.528Z,25.3
2022-08-18T17:11:25.073Z,25.3
2022-08-18T17:12:31.647Z,25.2
2022-08-18T17:13:38.207Z,25.2
2022-08-18T17:14:44.763Z,25.2
2022-08-18T17:15:51.324Z,25.3
2022-08-18T17:16:57.890Z,25.3
2022-08-18T17:18:04.452Z,25.2
2022-08-18T17:19:11.022Z,25.2
2022-08-18T17:20:17.583Z,25.2
2022-08-18T17:21:24.146Z,25.1
2022-08-18T17:22:30.724Z,25.1
2022-08-18T17:23:37.285Z,25.1
2022-08-18T17:24:44.074Z,25.1
2022-08-18T17:25:50.877Z,25
2022-08-18T17:26:57.667Z,25
2022-08-18T17:28:04.459Z,25
2022-08-18T17:29:11.262Z,24.9
2022-08-18T17:30:18.066Z,24.9
2022-08-18T17:31:24.871Z,24.9
2022-08-18T17:32:31.679Z,24.8
2022-08-18T17:33:38.495Z,24.8
2022-08-18T17:34:45.297Z,24.8